createdAt,value
2018-12-13T00:02:09.769Z,7.55
2018-12-13T00:04:39.135Z,6.53
2018-12-13T00:07:08.290Z,8.00
2018-12-13T00:09:37.810Z,7.50
2018-12-13T00:12:07.184Z,6.90
2018-12-13T00:14:36.304Z,6.90
2018-12-13T00:17:05.836Z,5.47
2018-12-13T00:19:35.196Z,5.60
2018-12-13T00:22:04.534Z,5.75
2018-12-13T00:24:33.728Z,6.40
2018-12-13T00:27:02.892Z,5.92
2018-12-13T00:29:32.198Z,6.75
2018-12-13T00:32:01.515Z,8.10
2018-12-13T00:34:30.651Z,7.05
2018-12-13T00:36:59.904Z,5.75
2018-12-13T00:39:29.101Z,8.20
2018-12-13T00:41:58.260Z,8.38
2018-12-13T00:44:27.383Z,6.95
2018-12-13T00:46:56.587Z,6.00
2018-12-13T00:49:25.816Z,7.08
2018-12-13T00:51:54.944Z,7.28
2018-12-13T00:54:24.180Z,8.23
2018-12-13T00:56:53.340Z,7.47
2018-12-13T00:59:22.505Z,8.40
2018-12-13T01:01:51.828Z,8.58
2018-12-13T01:04:21.048Z,8.25
2018-12-13T01:06:50.176Z,6.45
2018-12-13T01:09:19.392Z,8.80
2018-12-13T01:11:48.523Z,8.30
2018-12-13T01:14:17.856Z,10.10
2018-12-13T01:16:47.109Z,11.08
2018-12-13T01:19:16.302Z,8.75
2018-12-13T01:21:45.437Z,9.25
2018-12-13T01:24:14.666Z,7.95
2018-12-13T01:26:43.882Z,9.05
2018-12-13T01:29:13.164Z,9.05
2018-12-13T01:31:42.357Z,9.03
2018-12-13T01:34:12.428Z,9.55
2018-12-13T01:36:41.639Z,9.35
2018-12-13T01:39:10.780Z,9.40
2018-12-13T01:41:39.944Z,8.30
2018-12-13T01:44:09.192Z,7.33
2018-12-13T01:46:38.485Z,10.30
2018-12-13T01:49:07.637Z,8.75
2018-12-13T01:51:36.872Z,7.50
2018-12-13T01:54:06.756Z,7.53
2018-12-13T01:56:35.908Z,7.22
2018-12-13T01:59:05.117Z,8.80
2018-12-13T02:01:34.251Z,8.03
2018-12-13T02:04:03.412Z,9.70
2018-12-13T02:06:32.544Z,9.13
2018-12-13T02:09:01.760Z,9.60
2018-12-13T02:11:31.608Z,7.87
2018-12-13T02:14:00.880Z,7.03
2018-12-13T02:16:30.095Z,7.20
2018-12-13T02:18:59.538Z,7.30
2018-12-13T02:21:28.669Z,7.65
2018-12-13T02:23:57.924Z,8.90
2018-12-13T02:26:27.176Z,7.17
2018-12-13T02:28:56.404Z,7.35
2018-12-13T02:31:25.621Z,9.05
2018-12-13T02:33:56.287Z,7.75
2018-12-13T02:36:26.144Z,8.65
2018-12-13T02:38:55.332Z,8.75
2018-12-13T02:41:25.753Z,7.55
2018-12-13T02:43:54.871Z,9.23
2018-12-13T02:46:24.160Z,8.05
2018-12-13T02:49:07.175Z,8.78
2018-12-13T02:51:36.743Z,9.58
2018-12-13T02:54:05.957Z,9.55
2018-12-13T02:56:35.103Z,8.45
2018-12-13T02:59:05.099Z,9.58
2018-12-13T03:01:34.288Z,8.20
2018-12-13T03:04:03.512Z,8.60
2018-12-13T03:06:32.648Z,8.23
2018-12-13T03:11:36.555Z,7.55
2018-12-13T03:14:06.348Z,9.78
2018-12-13T03:16:36.051Z,9.25
2018-12-13T03:19:05.506Z,8.90
2018-12-13T03:21:34.831Z,8.43
2018-12-13T03:24:04.235Z,9.85
2018-12-13T03:26:33.481Z,7.67
2018-12-13T03:29:02.769Z,9.30
2018-12-13T03:31:31.943Z,8.83
2018-12-13T03:34:01.099Z,6.65
2018-12-13T03:36:30.764Z,9.15
2018-12-13T03:39:00.055Z,8.28
2018-12-13T03:41:29.272Z,8.50
2018-12-13T03:43:58.791Z,8.58
2018-12-13T03:46:29.647Z,8.70
2018-12-13T03:48:59.339Z,9.05
2018-12-13T03:51:28.667Z,9.78
2018-12-13T03:53:58.408Z,10.15
2018-12-13T03:56:27.566Z,9.53
2018-12-13T03:58:56.725Z,8.13
2018-12-13T04:01:25.908Z,8.93
2018-12-13T04:03:55.154Z,9.43
2018-12-13T04:06:24.364Z,9.13
2018-12-13T04:08:53.800Z,10.38
2018-12-13T04:11:23.767Z,9.23
2018-12-13T04:13:52.896Z,7.50
2018-12-13T04:16:22.084Z,8.67
2018-12-13T04:18:51.374Z,10.50
2018-12-13T04:21:20.901Z,9.93
2018-12-13T04:23:50.119Z,9.47
2018-12-13T04:26:20.148Z,10.03
2018-12-13T04:28:49.628Z,9.73
2018-12-13T04:31:18.887Z,11.03
2018-12-13T04:33:48.020Z,9.40
2018-12-13T04:36:17.163Z,8.90
2018-12-13T04:38:46.395Z,9.93
2018-12-13T04:41:15.625Z,10.68
2018-12-13T04:43:45.244Z,8.70
2018-12-13T04:46:15.202Z,8.35
2018-12-13T04:48:44.365Z,9.17
2018-12-13T04:51:13.985Z,9.95
2018-12-13T04:53:43.125Z,9.93
2018-12-13T04:56:12.706Z,9.78
2018-12-13T04:58:42.373Z,10.33
2018-12-13T05:01:11.520Z,9.33
2018-12-13T05:03:41.235Z,9.03
2018-12-13T05:06:10.456Z,10.20
2018-12-13T05:08:39.732Z,10.30
2018-12-13T05:11:08.936Z,9.90
2018-12-13T05:13:38.073Z,9.98
2018-12-13T05:16:07.259Z,9.70
2018-12-13T05:18:36.419Z,9.33
2018-12-13T05:21:05.539Z,8.68
2018-12-13T05:23:34.827Z,10.75
2018-12-13T05:26:04.376Z,10.88
2018-12-13T05:28:33.921Z,10.53
2018-12-13T05:31:03.066Z,9.30
2018-12-13T05:33:32.305Z,10.15
2018-12-13T05:36:01.459Z,8.10
2018-12-13T05:38:30.597Z,9.40
2018-12-13T05:40:59.777Z,11.75
2018-12-13T05:43:29.018Z,10.93
2018-12-13T05:45:58.574Z,8.83
2018-12-13T05:48:27.805Z,9.65
2018-12-13T05:50:56.963Z,9.88
2018-12-13T05:53:26.300Z,8.00
2018-12-13T05:55:56.024Z,9.10
2018-12-13T05:58:25.172Z,11.08
2018-12-13T06:00:54.906Z,10.43
2018-12-13T06:03:24.132Z,8.90
2018-12-13T06:05:53.348Z,10.55
2018-12-13T06:08:22.577Z,7.90
2018-12-13T06:10:52.060Z,8.87
2018-12-13T06:13:21.192Z,8.10
2018-12-13T06:15:50.389Z,9.23
2018-12-13T06:18:19.637Z,10.72
2018-12-13T06:20:49.465Z,8.23
2018-12-13T06:23:19.382Z,8.10
2018-12-13T06:25:48.613Z,9.47
2018-12-13T06:28:18.380Z,5.90
2018-12-13T06:30:47.519Z,7.87
2018-12-13T06:33:16.655Z,9.88
2018-12-13T06:35:45.801Z,8.63
2018-12-13T06:38:17.000Z,7.80
2018-12-13T06:40:46.130Z,9.83
2018-12-13T06:43:15.349Z,8.40
2018-12-13T06:45:45.031Z,10.43
2018-12-13T06:48:14.405Z,8.40
2018-12-13T06:50:43.528Z,8.17
2018-12-13T06:53:12.663Z,9.60
2018-12-13T06:55:41.792Z,10.90
2018-12-13T06:58:11.623Z,8.80
2018-12-13T07:00:40.729Z,9.40
2018-12-13T07:03:09.870Z,11.12
2018-12-13T07:05:39.584Z,9.35
2018-12-13T07:08:08.775Z,9.03
2018-12-13T07:10:38.004Z,8.68
2018-12-13T07:13:07.773Z,9.30
2018-12-13T07:15:43.601Z,8.95
2018-12-13T07:18:12.740Z,8.80
2018-12-13T07:20:41.945Z,8.53
2018-12-13T07:23:11.120Z,8.33
2018-12-13T07:25:40.668Z,10.00
2018-12-13T07:28:09.845Z,9.10
2018-12-13T07:30:39.141Z,10.23
2018-12-13T07:33:14.566Z,8.00
2018-12-13T07:35:43.791Z,9.53
2018-12-13T07:38:14.435Z,9.50
2018-12-13T07:40:44.213Z,10.68
2018-12-13T07:43:13.344Z,10.17
2018-12-13T07:45:42.587Z,9.00
2018-12-13T07:48:11.856Z,10.10
2018-12-13T07:50:41.455Z,9.67
2018-12-13T07:53:10.571Z,9.00
2018-12-13T07:55:39.704Z,9.93
2018-12-13T07:58:09.004Z,9.70
2018-12-13T08:00:38.647Z,10.80
2018-12-13T08:03:07.933Z,9.90
2018-12-13T08:05:37.812Z,10.40
2018-12-13T08:08:06.950Z,10.13
2018-12-13T08:10:36.096Z,9.63
2018-12-13T08:13:05.331Z,9.48
2018-12-13T08:15:34.548Z,7.35
2018-12-13T08:18:03.767Z,10.30
2018-12-13T08:20:32.902Z,8.40
2018-12-13T08:23:02.748Z,8.80
2018-12-13T08:25:32.224Z,9.80
2018-12-13T08:28:01.988Z,9.63
2018-12-13T08:30:32.228Z,9.77
2018-12-13T08:33:01.775Z,10.40
2018-12-13T08:35:31.083Z,9.33
2018-12-13T08:38:01.064Z,9.07
2018-12-13T08:40:30.776Z,10.70
2018-12-13T08:42:59.985Z,10.43
2018-12-13T08:45:29.120Z,9.87
2018-12-13T08:47:58.324Z,9.97
2018-12-13T08:50:27.528Z,8.93
2018-12-13T08:52:56.668Z,11.10
2018-12-13T08:55:25.899Z,10.93
2018-12-13T08:57:55.506Z,10.23
2018-12-13T09:00:25.124Z,10.67
2018-12-13T09:02:54.337Z,10.80
2018-12-13T09:05:23.588Z,10.73
2018-12-13T09:07:52.713Z,9.63
2018-12-13T09:10:21.842Z,11.67
2018-12-13T09:12:51.403Z,6.70
2018-12-13T09:15:20.504Z,10.43
2018-12-13T09:17:49.812Z,6.20
2018-12-13T09:20:19.777Z,9.90
2018-12-13T09:22:48.913Z,11.43
2018-12-13T09:25:18.128Z,9.97
2018-12-13T09:27:47.260Z,8.47
2018-12-13T09:30:16.453Z,11.77
2018-12-13T09:32:46.006Z,7.00
2018-12-13T09:35:15.204Z,11.80
2018-12-13T09:37:47.518Z,8.90
2018-12-13T09:40:15.588Z,11.43
2018-12-13T09:42:44.854Z,11.45
2018-12-13T09:45:14.150Z,9.20
2018-12-13T09:47:43.268Z,11.75
2018-12-13T09:50:12.476Z,11.97
2018-12-13T09:52:41.608Z,9.97
2018-12-13T09:55:10.861Z,11.48
2018-12-13T09:57:40.275Z,11.30
2018-12-13T10:00:10.937Z,9.95
2018-12-13T10:02:40.091Z,11.00
2018-12-13T10:05:09.409Z,10.50
2018-12-13T10:07:39.041Z,11.77
2018-12-13T10:10:08.328Z,16.50
2018-12-13T10:12:38.577Z,10.87
2018-12-13T10:15:08.024Z,11.25
2018-12-13T10:17:37.241Z,13.87
2018-12-13T10:20:06.584Z,11.20
2018-12-13T10:22:35.892Z,11.80
2018-12-13T10:25:05.593Z,12.47
2018-12-13T10:27:34.952Z,12.65
2018-12-13T10:30:04.341Z,12.83
2018-12-13T10:32:33.464Z,11.87
2018-12-13T10:35:02.663Z,12.47
2018-12-13T10:37:31.840Z,12.00
2018-12-13T10:40:01.083Z,11.27
2018-12-13T10:42:30.972Z,11.80
2018-12-13T10:45:00.103Z,12.80
2018-12-13T10:47:29.388Z,10.07
2018-12-13T10:49:58.600Z,11.63
2018-12-13T10:52:27.726Z,12.17
2018-12-13T10:54:56.881Z,13.93
2018-12-13T10:57:26.050Z,13.77
2018-12-13T10:59:55.524Z,12.35
2018-12-13T11:02:33.431Z,13.63
2018-12-13T11:05:03.604Z,12.30
2018-12-13T11:07:32.814Z,12.55
2018-12-13T11:10:02.238Z,12.67
2018-12-13T11:12:31.385Z,12.67
2018-12-13T11:15:01.321Z,13.03
2018-12-13T11:17:30.429Z,13.57
2018-12-13T11:19:59.549Z,13.53
2018-12-13T11:22:28.693Z,13.57
2018-12-13T11:24:57.817Z,13.15
2018-12-13T11:27:42.500Z,10.83
2018-12-13T11:30:26.285Z,11.37
2018-12-13T11:32:55.396Z,11.50
2018-12-13T11:35:24.653Z,11.23
2018-12-13T11:37:53.807Z,12.60
2018-12-13T11:40:23.021Z,10.70
2018-12-13T11:42:52.331Z,12.73
2018-12-13T11:45:21.620Z,13.07
2018-12-13T11:47:50.763Z,14.23
2018-12-13T11:50:20.044Z,14.07
2018-12-13T11:52:49.630Z,11.53
2018-12-13T11:55:52.111Z,12.93
2018-12-13T11:58:21.467Z,11.70
2018-12-13T12:00:50.667Z,11.63
2018-12-13T12:03:19.808Z,12.27
2018-12-13T12:05:49.037Z,14.00
2018-12-13T12:08:18.264Z,14.50
2018-12-13T12:10:47.958Z,12.43
2018-12-13T12:13:17.101Z,12.03
2018-12-13T12:15:46.283Z,12.85
2018-12-13T12:18:15.812Z,12.63
2018-12-13T12:20:44.960Z,10.72
2018-12-13T12:23:14.080Z,10.67
2018-12-13T12:25:44.058Z,13.30
2018-12-13T12:28:14.008Z,14.97
2018-12-13T12:30:44.426Z,13.22
2018-12-13T12:33:13.875Z,13.47
2018-12-13T12:35:43.340Z,11.70
2018-12-13T12:38:12.687Z,11.97
2018-12-13T12:40:42.020Z,12.53
2018-12-13T12:43:11.151Z,12.73
2018-12-13T12:45:40.796Z,9.90
2018-12-13T12:48:09.904Z,13.28
2018-12-13T12:50:39.025Z,13.85
2018-12-13T12:53:08.240Z,15.67
2018-12-13T12:55:37.511Z,14.38
2018-12-13T12:58:06.635Z,14.70
2018-12-13T13:00:36.619Z,14.73
2018-12-13T13:03:06.283Z,9.90
2018-12-13T13:05:35.433Z,12.43
2018-12-13T13:08:04.672Z,15.10
2018-12-13T13:10:34.401Z,13.70
2018-12-13T13:13:03.544Z,14.07
2018-12-13T13:15:32.664Z,13.87
2018-12-13T13:18:01.788Z,13.73
2018-12-13T13:20:31.557Z,13.63
2018-12-13T13:23:00.822Z,14.90
2018-12-13T13:25:29.995Z,14.43
2018-12-13T13:27:59.157Z,14.50
2018-12-13T13:30:28.321Z,15.03
2018-12-13T13:32:57.475Z,14.13
2018-12-13T13:35:27.044Z,13.70
2018-12-13T13:37:56.235Z,11.77
2018-12-13T13:40:25.376Z,12.30
2018-12-13T13:42:54.537Z,13.57
2018-12-13T13:45:24.746Z,14.33
2018-12-13T13:47:53.960Z,12.82
2018-12-13T13:50:23.204Z,14.90
2018-12-13T13:52:52.791Z,13.45
2018-12-13T13:55:22.239Z,13.25
2018-12-13T13:57:51.559Z,14.43
2018-12-13T14:00:21.255Z,13.87
2018-12-13T14:02:50.377Z,13.03
2018-12-13T14:05:19.585Z,14.25
2018-12-13T14:07:50.335Z,13.05
2018-12-13T14:10:19.600Z,14.93
2018-12-13T14:12:49.818Z,13.70
2018-12-13T14:15:19.223Z,13.60
2018-12-13T14:17:48.524Z,11.68
2018-12-13T14:20:17.741Z,15.60
2018-12-13T14:22:47.196Z,15.68
2018-12-13T14:25:16.352Z,11.28
2018-12-13T14:27:46.312Z,12.70
2018-12-13T14:30:15.668Z,14.87
2018-12-13T14:32:44.836Z,15.13
2018-12-13T14:35:14.091Z,13.93
2018-12-13T14:37:43.268Z,11.03
2018-12-13T14:40:12.460Z,12.17
2018-12-13T14:42:41.622Z,13.05
2018-12-13T14:45:10.904Z,14.40
2018-12-13T14:47:42.808Z,9.70
2018-12-13T14:50:12.021Z,15.00
2018-12-13T14:52:41.488Z,13.13
2018-12-13T14:55:11.145Z,13.77
2018-12-13T14:57:40.394Z,14.67
2018-12-13T15:00:12.185Z,12.80
2018-12-13T15:02:41.385Z,15.43
2018-12-13T15:05:12.336Z,12.03
2018-12-13T15:07:42.411Z,14.83
2018-12-13T15:10:12.494Z,13.57
2018-12-13T15:12:41.776Z,13.87
2018-12-13T15:15:11.112Z,13.50
2018-12-13T15:17:40.260Z,13.72
2018-12-13T15:20:09.565Z,14.27
2018-12-13T15:22:38.714Z,11.53
2018-12-13T15:25:08.337Z,12.53
2018-12-13T15:27:37.768Z,14.80
2018-12-13T15:30:07.899Z,14.20
2018-12-13T15:32:37.153Z,12.60
2018-12-13T15:35:06.573Z,11.67
2018-12-13T15:37:35.719Z,12.70
2018-12-13T15:40:05.689Z,12.73
2018-12-13T15:42:35.519Z,12.50
2018-12-13T15:45:06.113Z,11.60
2018-12-13T15:47:35.348Z,13.08
2018-12-13T15:50:05.884Z,12.50
2018-12-13T15:52:35.404Z,11.83
2018-12-13T15:55:04.749Z,12.90
2018-12-13T15:57:34.360Z,12.30
2018-12-13T16:00:03.537Z,12.13
2018-12-13T16:02:32.691Z,12.07
2018-12-13T16:05:02.400Z,11.73
2018-12-13T16:07:31.924Z,12.03
2018-12-13T16:10:03.965Z,12.23
2018-12-13T16:12:33.232Z,13.80
2018-12-13T16:15:02.389Z,12.60
2018-12-13T16:17:31.620Z,14.58
2018-12-13T16:20:00.800Z,11.60
2018-12-13T16:22:30.377Z,11.30
2018-12-13T16:24:59.584Z,12.37
2018-12-13T16:27:28.828Z,12.47
2018-12-13T16:29:59.028Z,13.22
2018-12-13T16:32:28.241Z,11.43
2018-12-13T16:34:57.404Z,14.30
2018-12-13T16:37:27.104Z,11.90
2018-12-13T16:39:56.242Z,11.73
2018-12-13T16:42:25.396Z,12.93
2018-12-13T16:45:01.196Z,13.48
2018-12-13T16:47:30.352Z,13.50
2018-12-13T16:49:59.973Z,12.35
2018-12-13T16:52:29.128Z,11.97
2018-12-13T16:54:58.386Z,12.50
2018-12-13T16:57:28.764Z,14.95
2018-12-13T16:59:57.901Z,13.15
2018-12-13T17:02:27.647Z,13.88
2018-12-13T17:05:03.193Z,12.53
2018-12-13T17:07:31.091Z,11.93
2018-12-13T17:10:00.486Z,12.50
2018-12-13T17:12:29.936Z,12.83
2018-12-13T17:14:59.437Z,11.80
2018-12-13T17:17:28.572Z,13.83
2018-12-13T17:19:57.696Z,13.03
2018-12-13T17:22:26.832Z,13.15
2018-12-13T17:24:55.984Z,11.40
2018-12-13T17:27:25.752Z,12.85
2018-12-13T17:29:54.900Z,11.20
2018-12-13T17:32:24.899Z,12.37
2018-12-13T17:34:57.497Z,12.82
2018-12-13T17:37:26.799Z,12.43
2018-12-13T17:39:55.953Z,11.57
2018-12-13T17:42:25.305Z,11.67
2018-12-13T17:44:54.463Z,12.83
2018-12-13T17:47:23.596Z,11.50
2018-12-13T17:49:53.413Z,14.70
2018-12-13T17:52:22.553Z,11.90
2018-12-13T17:54:51.877Z,12.00
2018-12-13T17:57:21.088Z,13.60
2018-12-13T17:59:50.253Z,13.70
2018-12-13T18:02:19.463Z,13.67
2018-12-13T18:04:49.755Z,12.53
2018-12-13T18:07:18.964Z,24.67
2018-12-13T18:09:48.171Z,15.43
2018-12-13T18:12:17.940Z,14.28
2018-12-13T18:14:47.124Z,13.33
2018-12-13T18:17:17.504Z,13.03
2018-12-13T18:19:48.446Z,14.87
2018-12-13T18:22:17.665Z,11.80
2018-12-13T18:24:47.503Z,13.03
2018-12-13T18:27:16.644Z,13.30
2018-12-13T18:29:46.842Z,13.00
2018-12-13T18:32:15.981Z,13.93
2018-12-13T18:34:45.464Z,14.23
2018-12-13T18:37:14.595Z,13.20
2018-12-13T18:39:43.769Z,14.10
2018-12-13T18:42:13.674Z,13.47
2018-12-13T18:44:42.819Z,13.15
2018-12-13T18:47:12.424Z,14.50
2018-12-13T18:49:41.578Z,14.03
2018-12-13T18:52:10.709Z,14.50
2018-12-13T18:54:39.847Z,14.57
2018-12-13T18:57:09.412Z,12.60
2018-12-13T18:59:38.844Z,13.88
2018-12-13T19:02:08.156Z,12.60
2018-12-13T19:04:40.144Z,12.57
2018-12-13T19:07:09.379Z,13.73
2018-12-13T19:09:39.419Z,12.53
2018-12-13T19:12:08.568Z,13.10
2018-12-13T19:14:37.744Z,13.87
2018-12-13T19:17:07.537Z,10.53
2018-12-13T19:19:36.708Z,13.62
2018-12-13T19:22:05.912Z,12.73
2018-12-13T19:24:42.018Z,10.18
2018-12-13T19:27:11.226Z,11.75
2018-12-13T19:29:41.433Z,12.85
2018-12-13T19:32:10.705Z,11.83
2018-12-13T19:34:40.181Z,11.23
2018-12-13T19:37:10.856Z,12.60
2018-12-13T19:39:40.038Z,11.88
2018-12-13T19:42:09.204Z,14.28
2018-12-13T19:44:38.363Z,11.18
2018-12-13T19:47:07.595Z,12.50
2018-12-13T19:49:37.173Z,13.10
2018-12-13T19:52:07.232Z,12.68
2018-12-13T19:54:37.134Z,11.27
2018-12-13T19:57:06.424Z,12.80
2018-12-13T19:59:35.568Z,11.65
2018-12-13T20:02:05.352Z,12.03
2018-12-13T20:04:34.710Z,11.90
2018-12-13T20:07:03.969Z,12.00
2018-12-13T20:09:33.260Z,11.20
2018-12-13T20:12:02.457Z,13.10
2018-12-13T20:14:32.552Z,13.25
2018-12-13T20:17:01.689Z,11.65
2018-12-13T20:19:30.816Z,12.85
2018-12-13T20:22:00.054Z,13.45
2018-12-13T20:24:30.616Z,15.35
2018-12-13T20:27:01.588Z,12.43
2018-12-13T20:29:31.576Z,12.57
2018-12-13T20:32:00.831Z,14.73
2018-12-13T20:34:29.984Z,13.17
2018-12-13T20:36:59.137Z,12.90
2018-12-13T20:39:28.302Z,12.30
2018-12-13T20:41:57.984Z,11.75
2018-12-13T20:44:27.120Z,12.60
2018-12-13T20:46:56.280Z,13.97
2018-12-13T20:49:25.448Z,12.30
2018-12-13T20:51:55.113Z,11.77
2018-12-13T20:54:24.262Z,14.23
2018-12-13T20:56:53.520Z,11.50
2018-12-13T20:59:22.646Z,13.80
2018-12-13T21:01:51.874Z,12.20
2018-12-13T21:04:21.575Z,11.37
2018-12-13T21:10:40.771Z,14.40
2018-12-13T21:13:10.583Z,14.70
2018-12-13T21:15:39.805Z,11.90
2018-12-13T21:18:08.986Z,13.95
2018-12-13T21:20:38.220Z,12.07
2018-12-13T21:23:07.795Z,12.63
2018-12-13T21:25:37.062Z,13.00
2018-12-13T21:28:06.191Z,13.87
2018-12-13T21:30:35.341Z,11.27
2018-12-13T21:33:04.488Z,14.03
2018-12-13T21:35:34.273Z,14.50
2018-12-13T21:38:04.466Z,13.50
2018-12-13T21:40:35.795Z,12.97
2018-12-13T21:43:05.313Z,13.95
2018-12-13T21:45:34.686Z,12.70
2018-12-13T21:48:03.932Z,11.17
2018-12-13T21:50:33.900Z,11.15
2018-12-13T21:53:03.172Z,14.27
2018-12-13T21:55:32.404Z,14.18
2018-12-13T21:58:01.636Z,13.68
2018-12-13T22:00:30.884Z,12.75
2018-12-13T22:03:00.069Z,13.30
2018-12-13T22:05:29.213Z,12.03
2018-12-13T22:07:59.961Z,13.88
2018-12-13T22:10:29.878Z,13.50
2018-12-13T22:12:59.664Z,13.48
2018-12-13T22:15:28.975Z,14.65
2018-12-13T22:17:58.247Z,14.03
2018-12-13T22:20:27.791Z,12.53
2018-12-13T22:22:57.352Z,13.97
2018-12-13T22:25:26.889Z,15.40
2018-12-13T22:27:56.025Z,13.28
2018-12-13T22:30:25.925Z,11.12
2018-12-13T22:32:55.053Z,12.35
2018-12-13T22:35:24.876Z,16.27
2018-12-13T22:37:54.540Z,14.40
2018-12-13T22:40:29.342Z,13.85
2018-12-13T22:42:58.632Z,14.50
2018-12-13T22:45:27.755Z,14.73
2018-12-13T22:47:56.883Z,13.58
2018-12-13T22:50:26.537Z,15.88
2018-12-13T22:52:55.657Z,15.00
2018-12-13T22:55:25.105Z,14.83
2018-12-13T22:57:55.541Z,16.13
2018-12-13T23:00:24.772Z,14.23
2018-12-13T23:02:54.128Z,15.38
2018-12-13T23:05:23.853Z,13.13
2018-12-13T23:07:53.736Z,14.60
2018-12-13T23:10:22.980Z,15.25
2018-12-13T23:12:52.636Z,14.63
2018-12-13T23:15:21.928Z,13.13
2018-12-13T23:17:51.119Z,16.15
2018-12-13T23:20:20.992Z,14.53
2018-12-13T23:22:50.821Z,15.20
2018-12-13T23:25:20.004Z,14.58
2018-12-13T23:27:50.571Z,14.58
2018-12-13T23:30:20.324Z,13.65
2018-12-13T23:32:49.500Z,12.17
2018-12-13T23:35:18.788Z,14.10
2018-12-13T23:37:48.060Z,15.63
2018-12-13T23:40:17.341Z,14.40
2018-12-13T23:42:46.532Z,14.33
2018-12-13T23:45:16.092Z,12.80
2018-12-13T23:47:46.051Z,8.53
2018-12-13T23:50:16.867Z,17.17
2018-12-13T23:52:46.551Z,16.50
2018-12-13T23:55:15.707Z,14.00
2018-12-13T23:57:44.911Z,12.83
